Time;durP1;ratioP1;P1;durP2;ratioP2;P2;SDS_P1;SDS_P2;PMS_P1;PMS_P2;Temp;Humidity;BMP_temperature;BMP_pressure;BME280_temperature;BME280_humidity;BME280_pressure;Samples;Min_cycle;Max_cycle;Signal;HPM_P1;HPM_P2
2022/03/03 00:01:40;;;;;;;65.10;24.65;;;;;;;;;;4970904;28;20447;-62
2022/03/03 00:04:06;;;;;;;66.95;25.17;;;;;;;;;;4970981;28;20425;-63
2022/03/03 00:06:32;;;;;;;70.75;24.98;;;;;;;;;;4971622;28;20091;-62
2022/03/03 00:08:58;;;;;;;68.57;25.33;;;;;;;;;;4970798;28;20030;-63
2022/03/03 00:11:24;;;;;;;69.70;26.63;;;;;;;;;;4970910;28;20524;-62
2022/03/03 00:13:49;;;;;;;75.05;25.77;;;;;;;;;;4971671;28;20452;-62
2022/03/03 00:16:15;;;;;;;78.55;25.05;;;;;;;;;;4970734;28;20432;-62
2022/03/03 00:18:40;;;;;;;67.60;23.52;;;;;;;;;;4970869;28;20302;-62
2022/03/03 00:21:06;;;;;;;72.43;26.15;;;;;;;;;;4970795;28;20052;-62
2022/03/03 00:23:32;;;;;;;62.10;23.58;;;;;;;;;;4970937;28;20479;-62
2022/03/03 00:25:58;;;;;;;71.15;25.27;;;;;;;;;;4971855;28;20511;-62
2022/03/03 00:28:23;;;;;;;70.28;24.83;;;;;;;;;;4970845;28;20452;-63
2022/03/03 00:30:48;;;;;;;75.78;27.30;;;;;;;;;;4970905;28;20491;-62
2022/03/03 00:33:14;;;;;;;82.18;27.55;;;;;;;;;;4971289;28;20387;-62
2022/03/03 00:35:39;;;;;;;78.63;27.98;;;;;;;;;;4970510;28;20429;-64
2022/03/03 00:38:04;;;;;;;76.68;25.85;;;;;;;;;;4970583;28;20421;-62
2022/03/03 00:40:30;;;;;;;61.35;24.65;;;;;;;;;;4970213;28;20445;-62
2022/03/03 00:42:55;;;;;;;70.45;25.50;;;;;;;;;;4971229;28;20033;-62
2022/03/03 00:45:22;;;;;;;67.43;25.92;;;;;;;;;;4970182;28;20365;-63
2022/03/03 00:47:47;;;;;;;70.63;25.35;;;;;;;;;;4970161;28;20523;-62
2022/03/03 00:50:12;;;;;;;73.57;25.75;;;;;;;;;;4971180;28;20368;-62
2022/03/03 00:52:37;;;;;;;68.85;26.23;;;;;;;;;;4970185;28;20425;-63
2022/03/03 00:55:03;;;;;;;67.60;25.95;;;;;;;;;;4970700;28;20411;-62
2022/03/03 00:57:29;;;;;;;63.35;25.67;;;;;;;;;;4970533;28;20033;-62
2022/03/03 00:59:54;;;;;;;59.30;22.38;;;;;;;;;;4970876;28;20029;-62
2022/03/03 01:02:19;;;;;;;64.28;23.88;;;;;;;;;;4980794;28;20433;-63
2022/03/03 01:04:44;;;;;;;68.78;24.95;;;;;;;;;;4970256;28;20346;-62
2022/03/03 01:07:10;;;;;;;67.55;24.88;;;;;;;;;;4970419;28;20364;-62
2022/03/03 01:09:35;;;;;;;73.82;25.92;;;;;;;;;;4970131;28;20512;-62
2022/03/03 01:12:00;;;;;;;71.72;23.83;;;;;;;;;;4969667;28;20575;-62
2022/03/03 01:14:26;;;;;;;67.43;24.90;;;;;;;;;;4969902;28;20390;-62
2022/03/03 01:16:52;;;;;;;63.10;24.05;;;;;;;;;;4969134;28;20467;-62
2022/03/03 01:19:18;;;;;;;65.75;23.83;;;;;;;;;;4970074;28;20349;-62
2022/03/03 01:21:43;;;;;;;70.22;24.73;;;;;;;;;;4970092;28;20408;-62
2022/03/03 01:24:09;;;;;;;72.60;25.10;;;;;;;;;;4969841;28;20489;-62
2022/03/03 01:26:34;;;;;;;65.90;25.52;;;;;;;;;;4970104;28;20401;-62
2022/03/03 01:28:59;;;;;;;63.35;24.15;;;;;;;;;;4969973;28;20087;-63
2022/03/03 01:31:25;;;;;;;64.97;25.42;;;;;;;;;;4969853;28;20404;-62
2022/03/03 01:33:50;;;;;;;69.90;24.70;;;;;;;;;;4969963;28;20030;-62
2022/03/03 01:36:15;;;;;;;64.10;24.65;;;;;;;;;;4969714;28;20472;-62
2022/03/03 01:38:41;;;;;;;69.70;23.75;;;;;;;;;;4969536;28;20469;-62
2022/03/03 01:41:07;;;;;;;69.03;24.20;;;;;;;;;;4968840;28;20483;-62
2022/03/03 01:43:33;;;;;;;63.55;23.77;;;;;;;;;;4969644;28;20349;-62
2022/03/03 01:45:58;;;;;;;69.05;23.60;;;;;;;;;;4971106;28;20107;-62
2022/03/03 01:48:23;;;;;;;50.08;20.80;;;;;;;;;;4970320;28;20441;-62
2022/03/03 01:50:49;;;;;;;62.35;24.30;;;;;;;;;;4969391;28;20017;-62
2022/03/03 01:53:15;;;;;;;61.08;23.20;;;;;;;;;;4969198;28;20349;-62
2022/03/03 01:55:40;;;;;;;64.38;23.08;;;;;;;;;;4970997;28;20344;-62
2022/03/03 01:58:06;;;;;;;60.15;21.15;;;;;;;;;;4969269;28;20329;-62
2022/03/03 02:00:31;;;;;;;67.57;23.02;;;;;;;;;;4971105;28;20318;-62
2022/03/03 02:02:56;;;;;;;66.32;24.73;;;;;;;;;;4969021;28;20452;-62
2022/03/03 02:05:23;;;;;;;62.13;22.02;;;;;;;;;;4969213;28;20030;-62
2022/03/03 02:07:48;;;;;;;54.25;21.73;;;;;;;;;;4969087;28;20404;-62
2022/03/03 02:10:13;;;;;;;60.80;21.85;;;;;;;;;;4969343;28;20423;-62
2022/03/03 02:12:39;;;;;;;64.63;21.92;;;;;;;;;;4969451;28;20448;-62
2022/03/03 02:15:05;;;;;;;57.53;20.92;;;;;;;;;;4970622;28;20304;-62
2022/03/03 02:17:30;;;;;;;56.83;19.58;;;;;;;;;;4969976;28;20432;-63
2022/03/03 02:19:57;;;;;;;52.58;20.38;;;;;;;;;;4969274;28;20459;-62
2022/03/03 02:22:22;;;;;;;56.05;19.70;;;;;;;;;;4968827;28;20329;-62
2022/03/03 02:24:47;;;;;;;54.78;19.75;;;;;;;;;;4968843;28;20029;-62
2022/03/03 02:27:13;;;;;;;51.83;20.65;;;;;;;;;;4969517;28;20340;-63
2022/03/03 02:29:38;;;;;;;52.65;21.95;;;;;;;;;;4973630;28;20596;-62
2022/03/03 02:32:05;;;;;;;54.28;20.05;;;;;;;;;;4973054;28;20408;-62
2022/03/03 02:34:31;;;;;;;59.58;21.85;;;;;;;;;;4972923;28;20449;-62
2022/03/03 02:36:56;;;;;;;55.20;22.55;;;;;;;;;;4954723;28;20455;-62
2022/03/03 02:39:21;;;;;;;48.45;20.15;;;;;;;;;;4973715;28;20563;-63
2022/03/03 02:41:47;;;;;;;57.15;22.08;;;;;;;;;;4972212;28;20458;-62
2022/03/03 02:44:12;;;;;;;64.38;20.85;;;;;;;;;;4972776;28;20423;-63
2022/03/03 02:46:37;;;;;;;59.80;21.27;;;;;;;;;;4972261;28;20490;-63
2022/03/03 02:49:04;;;;;;;59.67;21.02;;;;;;;;;;4973436;28;20507;-63
2022/03/03 02:51:30;;;;;;;54.08;19.60;;;;;;;;;;4972038;28;20373;-62
2022/03/03 02:53:55;;;;;;;50.47;19.70;;;;;;;;;;4954807;28;20465;-62
2022/03/03 02:56:20;;;;;;;55.10;19.60;;;;;;;;;;4972871;28;20381;-62
2022/03/03 02:58:46;;;;;;;56.53;20.15;;;;;;;;;;4972579;28;20021;-62
2022/03/03 03:01:11;;;;;;;56.75;19.98;;;;;;;;;;4972571;28;20375;-62
2022/03/03 03:03:37;;;;;;;51.45;21.02;;;;;;;;;;4972584;28;20472;-62
2022/03/03 03:06:02;;;;;;;50.15;21.63;;;;;;;;;;4972075;28;20368;-62
2022/03/03 03:08:28;;;;;;;52.42;21.25;;;;;;;;;;4972940;28;20432;-62
2022/03/03 03:10:54;;;;;;;53.20;21.23;;;;;;;;;;4972161;28;20353;-62
2022/03/03 03:13:19;;;;;;;50.88;21.33;;;;;;;;;;4972015;28;20333;-62
2022/03/03 03:15:45;;;;;;;62.33;20.95;;;;;;;;;;4972439;28;20433;-62
2022/03/03 03:18:16;;;;;;;49.40;18.60;;;;;;;;;;4971881;28;20464;-62
2022/03/03 03:20:44;;;;;;;55.35;19.50;;;;;;;;;;4971936;28;20108;-62
2022/03/03 03:23:11;;;;;;;55.13;19.63;;;;;;;;;;4971449;28;20429;-62
2022/03/03 03:25:43;;;;;;;53.22;19.48;;;;;;;;;;4971756;28;20395;-62
2022/03/03 03:28:15;;;;;;;62.95;20.40;;;;;;;;;;4971563;28;20322;-62
2022/03/03 03:30:41;;;;;;;48.00;20.17;;;;;;;;;;4973101;28;20448;-62
2022/03/03 03:33:07;;;;;;;47.53;18.25;;;;;;;;;;4971834;28;20359;-62
2022/03/03 03:35:32;;;;;;;48.30;17.85;;;;;;;;;;4953773;28;20453;-62
2022/03/03 03:37:58;;;;;;;50.13;19.58;;;;;;;;;;4971013;28;20356;-63
2022/03/03 03:40:23;;;;;;;54.92;20.05;;;;;;;;;;4970715;28;20388;-62
2022/03/03 03:42:49;;;;;;;46.83;19.35;;;;;;;;;;4954793;28;20440;-62
2022/03/03 03:45:14;;;;;;;53.47;21.58;;;;;;;;;;4972848;28;20348;-62
2022/03/03 03:47:41;;;;;;;54.70;20.08;;;;;;;;;;4971635;28;20498;-62
2022/03/03 03:50:08;;;;;;;42.53;18.70;;;;;;;;;;4971473;28;20445;-62
2022/03/03 03:52:34;;;;;;;52.55;20.92;;;;;;;;;;4971266;28;20356;-62
2022/03/03 03:54:59;;;;;;;56.00;19.95;;;;;;;;;;4971290;28;20491;-62
2022/03/03 03:57:25;;;;;;;50.83;19.38;;;;;;;;;;4971309;28;20437;-62
2022/03/03 03:59:50;;;;;;;56.92;20.05;;;;;;;;;;4972044;28;20533;-62
2022/03/03 04:02:16;;;;;;;50.75;19.55;;;;;;;;;;4971150;28;20444;-62
2022/03/03 04:04:42;;;;;;;48.83;19.88;;;;;;;;;;4971071;28;20029;-62
2022/03/03 04:07:07;;;;;;;53.22;19.38;;;;;;;;;;4970880;28;20044;-62
2022/03/03 04:09:32;;;;;;;49.90;18.98;;;;;;;;;;4972411;28;20030;-62
2022/03/03 04:11:58;;;;;;;48.72;17.85;;;;;;;;;;4971181;28;20445;-62
2022/03/03 04:14:23;;;;;;;47.97;20.38;;;;;;;;;;4971643;28;20092;-62
2022/03/03 04:16:48;;;;;;;56.70;19.27;;;;;;;;;;4971427;28;20026;-62
2022/03/03 04:19:15;;;;;;;56.35;21.48;;;;;;;;;;4970746;28;20426;-63
2022/03/03 04:21:40;;;;;;;53.80;19.95;;;;;;;;;;4970225;28;20388;-62
2022/03/03 04:24:06;;;;;;;50.65;20.65;;;;;;;;;;4971858;28;20057;-62
2022/03/03 04:26:31;;;;;;;45.53;18.08;;;;;;;;;;4953424;28;20459;-62
2022/03/03 04:28:57;;;;;;;49.25;18.15;;;;;;;;;;4971141;28;20034;-62
2022/03/03 04:31:23;;;;;;;54.72;21.05;;;;;;;;;;4971578;28;20417;-61
2022/03/03 04:33:48;;;;;;;52.58;19.63;;;;;;;;;;4970583;28;20399;-62
2022/03/03 04:36:14;;;;;;;48.83;19.33;;;;;;;;;;4970983;28;20372;-62
2022/03/03 04:38:39;;;;;;;58.00;20.08;;;;;;;;;;4971078;28;20332;-62
2022/03/03 04:41:04;;;;;;;54.22;20.08;;;;;;;;;;4970752;28;20353;-62
2022/03/03 04:43:30;;;;;;;52.90;20.77;;;;;;;;;;4970677;28;20333;-62
2022/03/03 04:45:55;;;;;;;48.10;20.52;;;;;;;;;;4971050;28;20452;-62
2022/03/03 04:48:21;;;;;;;51.83;19.00;;;;;;;;;;4972011;28;20496;-62
2022/03/03 04:50:49;;;;;;;58.65;20.48;;;;;;;;;;4970077;28;20350;-62
2022/03/03 04:53:14;;;;;;;56.03;20.20;;;;;;;;;;4970649;28;20338;-62
2022/03/03 04:55:39;;;;;;;53.40;20.88;;;;;;;;;;4971451;28;20052;-62
2022/03/03 04:58:05;;;;;;;49.13;20.25;;;;;;;;;;4970217;28;20435;-62
2022/03/03 05:00:30;;;;;;;59.70;21.08;;;;;;;;;;4969845;28;20030;-62
2022/03/03 05:02:56;;;;;;;54.83;20.58;;;;;;;;;;4970267;28;20441;-62
2022/03/03 05:05:21;;;;;;;50.05;19.02;;;;;;;;;;4970605;28;20057;-61
2022/03/03 05:07:46;;;;;;;58.78;20.10;;;;;;;;;;4969624;28;20590;-62
2022/03/03 05:10:11;;;;;;;53.45;20.70;;;;;;;;;;4969885;28;20429;-62
2022/03/03 05:12:37;;;;;;;50.88;22.15;;;;;;;;;;4970706;28;20455;-62
2022/03/03 05:15:03;;;;;;;51.70;20.83;;;;;;;;;;4969552;28;20029;-61
2022/03/03 05:17:29;;;;;;;50.05;20.98;;;;;;;;;;4969425;28;20026;-62
2022/03/03 05:19:55;;;;;;;61.22;23.15;;;;;;;;;;4969298;28;20498;-62
2022/03/03 05:22:21;;;;;;;51.83;21.83;;;;;;;;;;4971616;28;20494;-62
2022/03/03 05:24:50;;;;;;;57.53;22.10;;;;;;;;;;4969742;28;20443;-61
2022/03/03 05:27:15;;;;;;;54.15;20.13;;;;;;;;;;4969234;28;20138;-63
2022/03/03 05:29:40;;;;;;;51.42;21.27;;;;;;;;;;4970869;28;20104;-62
2022/03/03 05:32:06;;;;;;;48.28;20.75;;;;;;;;;;4969350;28;20399;-62
2022/03/03 05:34:31;;;;;;;60.13;21.83;;;;;;;;;;4970717;28;20418;-61
2022/03/03 05:36:57;;;;;;;60.53;21.45;;;;;;;;;;4970863;28;20435;-62
2022/03/03 05:39:23;;;;;;;61.28;23.45;;;;;;;;;;4951612;28;20037;-61
2022/03/03 05:41:49;;;;;;;57.08;22.80;;;;;;;;;;4968612;28;20472;-62
2022/03/03 05:44:14;;;;;;;52.55;20.23;;;;;;;;;;4969499;28;20317;-62
2022/03/03 05:46:43;;;;;;;48.80;20.77;;;;;;;;;;4969224;28;20052;-62
2022/03/03 05:49:10;;;;;;;;;;;;;;;;;;4970647;28;20464;-62
2022/03/03 05:51:35;;;;;;;59.15;22.58;;;;;;;;;;4970274;28;19936;-62
2022/03/03 05:54:01;;;;;;;47.45;19.85;;;;;;;;;;4969140;28;20468;-62
2022/03/03 05:56:30;;;;;;;59.92;22.10;;;;;;;;;;4969507;28;20038;-61
2022/03/03 05:58:56;;;;;;;59.00;22.50;;;;;;;;;;4951436;28;20422;-62
2022/03/03 06:01:22;;;;;;;56.50;23.45;;;;;;;;;;4971601;28;20026;-62
2022/03/03 06:03:50;;;;;;;65.68;22.15;;;;;;;;;;4973319;28;20349;-62
2022/03/03 06:06:21;;;;;;;59.53;23.55;;;;;;;;;;4974403;28;20448;-61
2022/03/03 06:09:15;;;;;;;45.70;21.08;;;;;;;;;;4974966;28;20494;-62
2022/03/03 06:11:47;;;;;;;62.00;23.75;;;;;;;;;;4959502;28;20465;-62
2022/03/03 06:14:16;;;;;;;53.92;21.80;;;;;;;;;;4955358;28;20441;-62
2022/03/03 06:16:42;;;;;;;66.63;24.25;;;;;;;;;;4972824;28;20026;-62
2022/03/03 06:19:08;;;;;;;60.30;24.35;;;;;;;;;;4972741;28;20472;-62
2022/03/03 06:21:33;;;;;;;58.55;23.40;;;;;;;;;;4974241;28;20413;-62
2022/03/03 06:23:59;;;;;;;55.78;23.83;;;;;;;;;;4972749;28;20018;-62
2022/03/03 06:26:25;;;;;;;62.92;22.50;;;;;;;;;;4972781;28;20388;-62
2022/03/03 06:28:51;;;;;;;61.95;23.50;;;;;;;;;;4972923;28;20415;-62
2022/03/03 06:31:16;;;;;;;60.30;22.42;;;;;;;;;;4972832;28;20383;-62
2022/03/03 06:33:42;;;;;;;63.83;24.38;;;;;;;;;;4972396;28;20463;-64
2022/03/03 06:36:08;;;;;;;68.35;25.05;;;;;;;;;;4972771;28;20162;-62
2022/03/03 06:38:34;;;;;;;68.40;26.10;;;;;;;;;;4972686;28;20741;-62
2022/03/03 06:41:01;;;;;;;66.75;23.38;;;;;;;;;;4972524;28;20419;-62
2022/03/03 06:43:29;;;;;;;66.43;24.27;;;;;;;;;;4972797;28;20439;-62
2022/03/03 06:45:56;;;;;;;64.03;25.10;;;;;;;;;;4972002;28;20123;-63
2022/03/03 06:48:21;;;;;;;65.95;25.08;;;;;;;;;;4973618;28;20445;-62
2022/03/03 06:50:49;;;;;;;62.17;24.58;;;;;;;;;;4972027;28;20526;-62
2022/03/03 06:53:16;;;;;;;69.47;25.58;;;;;;;;;;4972364;28;20408;-62
2022/03/03 06:55:41;;;;;;;69.65;27.73;;;;;;;;;;4972483;28;20437;-62
2022/03/03 06:58:07;;;;;;;67.40;26.55;;;;;;;;;;4968296;28;20455;-62
2022/03/03 07:00:34;;;;;;;74.22;26.42;;;;;;;;;;4963733;28;20409;-62
2022/03/03 07:03:03;;;;;;;69.50;28.70;;;;;;;;;;4971934;28;20418;-63
2022/03/03 07:05:30;;;;;;;66.63;27.02;;;;;;;;;;4955250;28;20449;-62
2022/03/03 07:07:56;;;;;;;75.95;29.67;;;;;;;;;;4972139;28;20498;-62
2022/03/03 07:10:25;;;;;;;82.00;28.15;;;;;;;;;;4972363;28;20416;-62
2022/03/03 07:12:56;;;;;;;70.20;28.75;;;;;;;;;;4971332;28;20496;-63
2022/03/03 07:15:25;;;;;;;71.38;27.83;;;;;;;;;;4971755;28;20512;-62
2022/03/03 07:17:53;;;;;;;67.63;29.23;;;;;;;;;;4972148;28;20409;-62
2022/03/03 07:21:17;;;;;;;79.75;30.35;;;;;;;;;;4973431;28;20444;-64
2022/03/03 07:23:48;;;;;;;84.32;30.80;;;;;;;;;;4899761;28;20034;-65
2022/03/03 07:26:15;;;;;;;71.95;29.27;;;;;;;;;;4911005;28;20439;-63
2022/03/03 07:28:46;;;;;;;75.97;29.02;;;;;;;;;;4940632;28;20068;-63
2022/03/03 07:31:15;;;;;;;85.18;29.33;;;;;;;;;;4971465;28;20511;-63
2022/03/03 07:33:48;;;;;;;74.93;31.77;;;;;;;;;;4963795;28;20377;-62
2022/03/03 07:36:19;;;;;;;73.68;29.85;;;;;;;;;;4971694;28;20397;-64
2022/03/03 07:38:52;;;;;;;82.93;28.90;;;;;;;;;;4971534;28;20449;-63
2022/03/03 07:41:18;;;;;;;70.32;29.48;;;;;;;;;;4968230;28;20440;-62
2022/03/03 07:43:43;;;;;;;72.63;28.40;;;;;;;;;;4971278;28;20105;-62
2022/03/03 07:46:08;;;;;;;72.35;30.00;;;;;;;;;;4971606;28;20393;-63
2022/03/03 07:48:34;;;;;;;74.97;28.10;;;;;;;;;;4971375;28;20510;-62
2022/03/03 07:51:01;;;;;;;73.38;28.38;;;;;;;;;;4970864;28;20072;-62
2022/03/03 07:53:26;;;;;;;72.05;29.15;;;;;;;;;;4971603;28;20326;-62
2022/03/03 07:55:58;;;;;;;76.85;28.02;;;;;;;;;;4970887;28;20400;-62
2022/03/03 07:58:28;;;;;;;80.10;28.17;;;;;;;;;;4969406;28;20341;-62
2022/03/03 08:00:53;;;;;;;65.88;25.75;;;;;;;;;;4970989;28;20512;-62
2022/03/03 08:03:23;;;;;;;71.22;26.42;;;;;;;;;;4968421;28;20495;-62
2022/03/03 08:05:49;;;;;;;;;;;;;;;;;;4971534;28;20034;-62
2022/03/03 08:08:16;;;;;;;56.72;25.65;;;;;;;;;;4970710;28;20312;-62
2022/03/03 08:10:43;;;;;;;67.68;25.88;;;;;;;;;;4963284;28;20330;-62
2022/03/03 08:13:13;;;;;;;63.90;26.55;;;;;;;;;;4972004;28;20405;-63
2022/03/03 08:15:40;;;;;;;63.38;27.23;;;;;;;;;;4970893;28;20155;-62
2022/03/03 08:18:07;;;;;;;68.63;25.65;;;;;;;;;;4970670;28;20412;-63
2022/03/03 08:20:33;;;;;;;69.80;27.60;;;;;;;;;;4971438;28;20611;-62
2022/03/03 08:23:00;;;;;;;65.28;26.17;;;;;;;;;;4970549;28;20504;-62
2022/03/03 08:25:25;;;;;;;64.45;26.17;;;;;;;;;;4970766;28;20106;-63
2022/03/03 08:27:53;;;;;;;65.55;26.17;;;;;;;;;;4970693;28;20034;-62
2022/03/03 08:30:18;;;;;;;69.85;25.10;;;;;;;;;;4970567;28;20360;-62
2022/03/03 08:32:49;;;;;;;62.25;27.00;;;;;;;;;;4971309;28;20406;-63
2022/03/03 08:35:16;;;;;;;70.72;25.73;;;;;;;;;;4967363;28;20563;-63
2022/03/03 08:37:53;;;;;;;67.13;27.70;;;;;;;;;;4970449;28;20055;-64
2022/03/03 08:40:19;;;;;;;69.32;25.08;;;;;;;;;;4967162;28;20444;-63
2022/03/03 08:42:48;;;;;;;68.22;26.52;;;;;;;;;;4962961;28;20534;-62
2022/03/03 08:45:17;;;;;;;58.47;24.35;;;;;;;;;;4971880;28;20413;-63
2022/03/03 08:47:43;;;;;;;74.75;26.33;;;;;;;;;;4970019;28;20351;-63
2022/03/03 08:50:13;;;;;;;63.08;25.17;;;;;;;;;;4970154;28;20441;-63
2022/03/03 08:52:40;;;;;;;63.25;26.33;;;;;;;;;;4971051;28;20465;-63
2022/03/03 08:55:09;;;;;;;69.70;26.50;;;;;;;;;;4970038;28;20421;-63
2022/03/03 08:57:36;;;;;;;65.03;26.40;;;;;;;;;;4970219;28;20344;-63
2022/03/03 09:00:02;;;;;;;66.63;26.25;;;;;;;;;;4970323;28;20441;-63
2022/03/03 09:02:27;;;;;;;68.43;24.95;;;;;;;;;;4969962;28;20310;-62
2022/03/03 09:04:53;;;;;;;60.97;25.60;;;;;;;;;;4969952;28;20165;-62
2022/03/03 09:07:18;;;;;;;68.22;26.30;;;;;;;;;;4971087;28;20056;-63
2022/03/03 09:09:44;;;;;;;59.38;25.88;;;;;;;;;;4969905;28;20099;-63
2022/03/03 09:12:09;;;;;;;61.72;24.13;;;;;;;;;;4970160;28;20326;-63
2022/03/03 09:14:35;;;;;;;58.25;24.95;;;;;;;;;;4969483;28;20372;-63
2022/03/03 09:17:00;;;;;;;60.47;24.10;;;;;;;;;;4969856;28;20456;-63
2022/03/03 09:19:26;;;;;;;66.60;23.58;;;;;;;;;;4969221;28;20436;-63
2022/03/03 09:21:51;;;;;;;60.33;24.13;;;;;;;;;;4963764;28;20495;-63
2022/03/03 09:24:17;;;;;;;59.35;24.10;;;;;;;;;;4970601;28;20380;-63
2022/03/03 09:26:42;;;;;;;65.00;23.63;;;;;;;;;;4969364;28;20412;-63
2022/03/03 09:29:07;;;;;;;57.83;23.38;;;;;;;;;;4969719;28;20556;-64
2022/03/03 09:31:33;;;;;;;63.47;25.40;;;;;;;;;;4969718;28;20440;-63
2022/03/03 09:33:58;;;;;;;55.50;21.90;;;;;;;;;;4969137;28;20341;-63
2022/03/03 09:36:23;;;;;;;59.65;25.17;;;;;;;;;;4970018;28;20077;-63
2022/03/03 09:38:49;;;;;;;57.67;23.45;;;;;;;;;;4970444;28;20385;-63
2022/03/03 09:41:14;;;;;;;57.05;21.30;;;;;;;;;;4969756;28;20401;-63
2022/03/03 09:43:41;;;;;;;49.78;22.38;;;;;;;;;;4969541;28;20033;-63
2022/03/03 09:46:07;;;;;;;60.92;22.23;;;;;;;;;;4969370;28;20337;-63
2022/03/03 09:48:33;;;;;;;52.95;22.42;;;;;;;;;;4969330;28;20337;-63
2022/03/03 09:50:58;;;;;;;55.40;21.10;;;;;;;;;;4968974;28;20425;-63
2022/03/03 09:53:24;;;;;;;55.58;23.77;;;;;;;;;;4969378;28;20336;-62
2022/03/03 09:55:49;;;;;;;56.13;21.63;;;;;;;;;;4969383;28;20433;-64
2022/03/03 09:58:15;;;;;;;55.72;21.60;;;;;;;;;;4969613;28;20448;-63
2022/03/03 10:00:41;;;;;;;54.05;21.00;;;;;;;;;;4969242;28;20041;-63
2022/03/03 10:03:10;;;;;;;52.88;20.75;;;;;;;;;;4969274;28;20466;-63
2022/03/03 10:05:47;;;;;;;47.60;19.77;;;;;;;;;;4968895;28;20536;-63
2022/03/03 10:08:21;;;;;;;53.83;21.10;;;;;;;;;;4969369;28;20429;-63
2022/03/03 10:10:58;;;;;;;42.35;19.15;;;;;;;;;;4969365;28;20425;-63
2022/03/03 10:13:23;;;;;;;54.28;21.48;;;;;;;;;;4968894;28;20451;-63
2022/03/03 10:15:55;;;;;;;48.92;20.95;;;;;;;;;;4969831;28;20432;-63
2022/03/03 10:18:21;;;;;;;48.10;20.02;;;;;;;;;;4968968;28;20425;-63
2022/03/03 10:20:58;;;;;;;49.05;21.30;;;;;;;;;;4969096;28;20112;-63
2022/03/03 10:23:28;;;;;;;46.55;20.30;;;;;;;;;;4970526;28;20029;-63
2022/03/03 10:25:55;;;;;;;49.38;21.10;;;;;;;;;;4968769;28;20033;-63
2022/03/03 10:28:25;;;;;;;38.47;17.30;;;;;;;;;;4969058;28;20464;-63
2022/03/03 10:31:13;;;;;;;46.45;18.83;;;;;;;;;;4969562;28;20304;-63
2022/03/03 10:33:40;;;;;;;48.10;19.00;;;;;;;;;;4969840;28;20025;-65
2022/03/03 10:36:08;;;;;;;50.40;20.65;;;;;;;;;;4968801;28;20436;-63
2022/03/03 10:39:01;;;;;;;41.28;19.00;;;;;;;;;;4969525;28;20472;-63
2022/03/03 10:41:30;;;;;;;39.90;16.60;;;;;;;;;;4968292;28;20049;-64
2022/03/03 10:43:55;;;;;;;44.33;18.38;;;;;;;;;;4969389;28;20317;-63
2022/03/03 10:46:21;;;;;;;41.88;18.17;;;;;;;;;;4968641;28;20419;-63
2022/03/03 10:48:46;;;;;;;42.65;16.80;;;;;;;;;;4970204;28;20053;-63
2022/03/03 10:51:16;;;;;;;42.67;17.60;;;;;;;;;;4972478;28;20168;-63
2022/03/03 10:53:42;;;;;;;;;;;;;;;;;;4973703;28;20440;-63
2022/03/03 10:56:15;;;;;;;46.88;16.88;;;;;;;;;;4972606;28;20255;-64
2022/03/03 10:58:53;;;;;;;42.05;17.60;;;;;;;;;;4972230;28;20336;-63
2022/03/03 11:01:27;;;;;;;43.60;17.80;;;;;;;;;;4975166;28;20395;-63
2022/03/03 11:03:53;;;;;;;43.17;18.05;;;;;;;;;;4972131;28;20433;-63
2022/03/03 11:06:24;;;;;;;40.67;17.75;;;;;;;;;;4972057;28;20432;-63
2022/03/03 11:08:52;;;;;;;43.38;17.75;;;;;;;;;;4972311;28;20356;-63
2022/03/03 11:11:18;;;;;;;43.35;18.33;;;;;;;;;;4971771;28;20498;-63
2022/03/03 11:13:47;;;;;;;42.47;17.98;;;;;;;;;;4972411;28;20128;-63
2022/03/03 11:16:14;;;;;;;37.75;15.80;;;;;;;;;;4971575;28;20345;-65
2022/03/03 11:18:40;;;;;;;38.00;15.43;;;;;;;;;;4972062;28;20400;-63
2022/03/03 11:21:05;;;;;;;35.88;16.02;;;;;;;;;;4973209;28;20386;-63
2022/03/03 11:23:42;;;;;;;43.22;17.30;;;;;;;;;;4962934;28;20471;-63
2022/03/03 11:26:34;;;;;;;38.97;15.70;;;;;;;;;;4971921;28;20391;-63
2022/03/03 11:29:13;;;;;;;39.15;15.73;;;;;;;;;;4966072;28;20052;-63
2022/03/03 11:32:03;;;;;;;40.78;15.25;;;;;;;;;;4972563;28;20088;-63
2022/03/03 11:34:32;;;;;;;41.90;16.23;;;;;;;;;;4962587;28;20407;-63
2022/03/03 11:37:05;;;;;;;31.25;14.60;;;;;;;;;;4971971;28;20421;-63
2022/03/03 11:39:39;;;;;;;34.90;15.60;;;;;;;;;;4971780;28;20463;-64
2022/03/03 11:42:17;;;;;;;38.50;15.80;;;;;;;;;;4971042;28;20488;-64
2022/03/03 11:44:43;;;;;;;36.92;14.13;;;;;;;;;;4971412;28;20449;-64
2022/03/03 11:47:22;;;;;;;35.55;14.25;;;;;;;;;;4973119;28;20524;-63
2022/03/03 11:49:57;;;;;;;34.20;16.00;;;;;;;;;;4971917;28;20527;-63
2022/03/03 11:52:22;;;;;;;31.17;13.18;;;;;;;;;;4971307;28;20344;-63
2022/03/03 11:54:54;;;;;;;37.83;15.05;;;;;;;;;;4971582;28;20034;-63
2022/03/03 11:57:23;;;;;;;35.20;15.75;;;;;;;;;;4971042;28;20030;-63
2022/03/03 11:59:49;;;;;;;38.42;15.93;;;;;;;;;;4971025;28;20048;-63
2022/03/03 12:02:19;;;;;;;36.28;14.85;;;;;;;;;;4970968;28;20504;-63
2022/03/03 12:04:45;;;;;;;30.10;13.80;;;;;;;;;;4964138;28;20432;-63
2022/03/03 12:07:29;;;;;;;37.38;15.07;;;;;;;;;;4971405;28;20099;-63
2022/03/03 12:09:56;;;;;;;36.28;15.02;;;;;;;;;;4971211;28;20030;-63
2022/03/03 12:12:22;;;;;;;35.15;14.50;;;;;;;;;;4971012;28;20452;-63
2022/03/03 12:14:59;;;;;;;39.60;14.68;;;;;;;;;;4971166;28;20413;-63
2022/03/03 12:17:46;;;;;;;30.60;13.27;;;;;;;;;;4970616;28;20390;-64
2022/03/03 12:20:23;;;;;;;31.80;12.98;;;;;;;;;;4971233;28;20130;-63
2022/03/03 12:23:12;;;;;;;30.75;12.70;;;;;;;;;;4970676;28;20421;-63
2022/03/03 12:25:59;;;;;;;;;;;;;;;;;;4963078;28;20368;-63
2022/03/03 12:28:35;;;;;;;36.80;13.60;;;;;;;;;;4970747;28;20320;-64
2022/03/03 12:31:01;;;;;;;32.38;12.68;;;;;;;;;;4970567;28;20116;-63
2022/03/03 12:33:29;;;;;;;33.83;13.32;;;;;;;;;;4971250;28;20084;-63
2022/03/03 12:36:00;;;;;;;33.92;14.20;;;;;;;;;;4971919;28;20439;-63
2022/03/03 12:38:26;;;;;;;33.35;14.00;;;;;;;;;;4970775;28;20073;-63
2022/03/03 12:40:52;;;;;;;30.42;13.75;;;;;;;;;;4969823;28;20412;-63
2022/03/03 12:43:19;;;;;;;31.85;15.30;;;;;;;;;;4970524;28;20459;-63
2022/03/03 12:45:46;;;;;;;27.70;13.35;;;;;;;;;;4970803;28;20359;-63
2022/03/03 12:48:12;;;;;;;30.58;13.48;;;;;;;;;;4970307;28;20336;-63
2022/03/03 12:50:39;;;;;;;31.75;14.35;;;;;;;;;;4970725;28;20409;-63
2022/03/03 12:53:10;;;;;;;37.40;12.65;;;;;;;;;;4970353;28;20391;-63
2022/03/03 12:55:49;;;;;;;29.85;12.93;;;;;;;;;;4970316;28;20421;-63
2022/03/03 12:58:17;;;;;;;29.85;12.85;;;;;;;;;;4971758;28;20305;-63
2022/03/03 13:00:44;;;;;;;26.63;12.20;;;;;;;;;;4969599;28;20492;-63
2022/03/03 13:03:11;;;;;;;31.23;13.32;;;;;;;;;;4971129;28;20456;-63
2022/03/03 13:05:41;;;;;;;29.92;12.52;;;;;;;;;;4970964;28;20037;-63
2022/03/03 13:08:20;;;;;;;30.33;12.52;;;;;;;;;;4969549;28;20341;-63
2022/03/03 13:10:46;;;;;;;29.00;12.32;;;;;;;;;;4969163;28;20356;-63
2022/03/03 13:13:12;;;;;;;26.88;12.52;;;;;;;;;;4966200;28;20021;-63
2022/03/03 13:15:38;;;;;;;29.75;13.50;;;;;;;;;;4961392;28;20436;-63
2022/03/03 13:18:04;;;;;;;27.67;13.00;;;;;;;;;;4970206;28;20492;-63
2022/03/03 13:20:37;;;;;;;33.60;12.52;;;;;;;;;;4969382;28;20412;-62
2022/03/03 13:23:03;;;;;;;31.73;12.98;;;;;;;;;;4969501;28;20424;-62
2022/03/03 13:25:29;;;;;;;31.88;12.90;;;;;;;;;;4976652;28;20423;-62
2022/03/03 13:27:55;;;;;;;28.15;12.40;;;;;;;;;;4969629;28;20343;-63
2022/03/03 13:30:21;;;;;;;24.17;11.15;;;;;;;;;;4969882;28;20344;-63
2022/03/03 13:32:47;;;;;;;28.55;13.05;;;;;;;;;;4969904;28;20458;-62
2022/03/03 13:35:14;;;;;;;26.60;11.40;;;;;;;;;;4969570;28;20325;-63
2022/03/03 13:37:40;;;;;;;31.05;12.52;;;;;;;;;;4968963;28;20431;-62
2022/03/03 13:40:34;;;;;;;27.02;11.77;;;;;;;;;;4969202;28;20048;-62
2022/03/03 13:42:59;;;;;;;27.50;11.02;;;;;;;;;;4964036;28;20392;-63
2022/03/03 13:45:25;;;;;;;28.60;11.98;;;;;;;;;;4969559;28;20395;-64
2022/03/03 13:48:19;;;;;;;28.75;11.00;;;;;;;;;;4969473;28;20484;-64
2022/03/03 13:51:01;;;;;;;24.70;11.65;;;;;;;;;;4968707;28;20420;-64
2022/03/03 13:53:27;;;;;;;25.60;11.65;;;;;;;;;;4969444;28;20017;-63
2022/03/03 13:56:02;;;;;;;22.50;11.10;;;;;;;;;;4969209;28;20472;-63
2022/03/03 13:58:28;;;;;;;25.17;10.52;;;;;;;;;;4969642;28;20515;-64
2022/03/03 14:00:54;;;;;;;22.60;10.75;;;;;;;;;;4969062;28;20559;-63
2022/03/03 14:03:20;;;;;;;25.25;11.63;;;;;;;;;;4969170;28;20460;-63
2022/03/03 14:05:50;;;;;;;24.30;10.98;;;;;;;;;;4970176;28;20419;-64
2022/03/03 14:08:33;;;;;;;26.83;10.15;;;;;;;;;;4970065;28;20436;-63
2022/03/03 14:11:05;;;;;;;22.60;9.77;;;;;;;;;;4951642;28;20409;-63
2022/03/03 14:13:54;;;;;;;24.70;10.70;;;;;;;;;;4970542;28;20022;-63
2022/03/03 14:16:22;;;;;;;23.92;10.52;;;;;;;;;;4971225;28;20429;-63
2022/03/03 14:18:48;;;;;;;24.63;10.05;;;;;;;;;;4968840;28;20116;-63
2022/03/03 14:21:14;;;;;;;26.88;11.07;;;;;;;;;;4969860;28;20307;-63
2022/03/03 14:23:39;;;;;;;24.17;10.60;;;;;;;;;;4972148;28;20353;-65